createdAt,value
2024-05-09T00:00:18.401Z,62
2024-05-09T00:01:19.521Z,62
2024-05-09T00:02:25.221Z,62
2024-05-09T00:03:33.058Z,61
2024-05-09T00:04:38.484Z,62
2024-05-09T00:05:46.660Z,62
2024-05-09T00:06:51.957Z,62
2024-05-09T00:07:57.396Z,63
2024-05-09T00:09:02.686Z,63
2024-05-09T00:10:11.747Z,63
2024-05-09T00:11:13.607Z,63
2024-05-09T00:12:22.043Z,63
2024-05-09T00:13:27.340Z,63
2024-05-09T00:14:33.104Z,63
2024-05-09T00:15:40.820Z,63
2024-05-09T00:16:46.170Z,64
2024-05-09T00:17:51.964Z,64
2024-05-09T00:18:57.942Z,64
2024-05-09T00:20:05.251Z,64
2024-05-09T00:21:09.338Z,64
2024-05-09T00:22:14.654Z,64
2024-05-09T00:23:20.032Z,64
2024-05-09T00:24:25.108Z,64
2024-05-09T00:25:30.740Z,65
2024-05-09T00:26:36.006Z,65
2024-05-09T00:27:41.485Z,65
2024-05-09T00:28:47.150Z,66
2024-05-09T00:29:52.237Z,66
2024-05-09T00:30:58.025Z,66
2024-05-09T00:32:03.587Z,66
2024-05-09T00:33:09.921Z,66
2024-05-09T00:34:14.714Z,65
2024-05-09T00:35:20.168Z,65
2024-05-09T00:36:25.647Z,65
2024-05-09T00:37:31.066Z,65
2024-05-09T00:38:36.751Z,64
2024-05-09T00:39:41.967Z,64
2024-05-09T00:40:47.736Z,64
2024-05-09T00:41:53.289Z,65
2024-05-09T00:42:58.816Z,65
2024-05-09T00:44:04.401Z,64
2024-05-09T00:45:09.698Z,64
2024-05-09T00:46:15.497Z,66
2024-05-09T00:47:21.130Z,67
2024-05-09T00:48:26.610Z,67
2024-05-09T00:49:31.771Z,67
2024-05-09T00:50:37.797Z,67
2024-05-09T00:51:42.453Z,67
2024-05-09T00:52:48.261Z,68
2024-05-09T00:53:54.032Z,68
2024-05-09T00:54:59.388Z,69
2024-05-09T00:56:05.282Z,69
2024-05-09T00:57:10.780Z,70
2024-05-09T00:58:16.158Z,70
2024-05-09T00:59:21.696Z,70
2024-05-09T01:00:31.443Z,70
2024-05-09T01:01:32.589Z,69
2024-05-09T01:02:37.963Z,70
2024-05-09T01:03:44.327Z,70
2024-05-09T01:04:48.906Z,70
2024-05-09T01:05:54.440Z,70
2024-05-09T01:06:59.769Z,70
2024-05-09T01:08:08.713Z,71
2024-05-09T01:09:13.696Z,70
2024-05-09T01:10:24.062Z,71
2024-05-09T01:11:24.758Z,71
2024-05-09T01:12:30.440Z,71
2024-05-09T01:13:35.715Z,70
2024-05-09T01:14:41.190Z,71
2024-05-09T01:15:46.419Z,71
2024-05-09T01:16:51.965Z,71
2024-05-09T01:17:57.641Z,71
2024-05-09T01:19:02.981Z,72
2024-05-09T01:20:10.608Z,72
2024-05-09T01:21:13.867Z,72
2024-05-09T01:22:19.111Z,72
2024-05-09T01:23:24.574Z,72
2024-05-09T01:24:30.118Z,73
2024-05-09T01:25:35.345Z,73
2024-05-09T01:26:40.928Z,72
2024-05-09T01:27:46.349Z,72
2024-05-09T01:28:52.245Z,73
2024-05-09T01:29:57.499Z,73
2024-05-09T01:31:03.096Z,73
2024-05-09T01:32:08.407Z,73
2024-05-09T01:33:14.236Z,72
2024-05-09T01:34:19.838Z,72
2024-05-09T01:35:25.519Z,72
2024-05-09T01:36:30.868Z,72
2024-05-09T01:37:36.145Z,71
2024-05-09T01:38:41.996Z,71
2024-05-09T01:39:47.568Z,71
2024-05-09T01:40:52.957Z,71
2024-05-09T01:41:58.604Z,71
2024-05-09T01:43:03.943Z,71
2024-05-09T01:44:09.635Z,71
2024-05-09T01:45:14.957Z,71
2024-05-09T01:46:20.395Z,71
2024-05-09T01:47:25.892Z,71
2024-05-09T01:48:31.477Z,70
2024-05-09T01:49:36.781Z,70
2024-05-09T01:50:42.883Z,70
2024-05-09T01:51:46.943Z,70
2024-05-09T01:52:52.713Z,70
2024-05-09T01:53:58.173Z,70
2024-05-09T01:55:05.633Z,71
2024-05-09T01:56:11.804Z,71
2024-05-09T01:57:17.354Z,70
2024-05-09T01:58:22.734Z,70
2024-05-09T01:59:28.433Z,70
2024-05-09T02:00:37.535Z,70
2024-05-09T02:01:54.896Z,70
2024-05-09T02:02:44.998Z,70
2024-05-09T02:03:50.783Z,69
2024-05-09T02:04:56.057Z,69
2024-05-09T02:06:01.364Z,69
2024-05-09T02:07:07.080Z,69
2024-05-09T02:08:12.383Z,69
2024-05-09T02:09:18.063Z,69
2024-05-09T02:10:29.919Z,69
2024-05-09T02:11:29.365Z,68
2024-05-09T02:12:34.765Z,68
2024-05-09T02:13:40.219Z,68
2024-05-09T02:14:45.855Z,68
2024-05-09T02:15:51.553Z,68
2024-05-09T02:16:56.827Z,68
2024-05-09T02:18:02.595Z,67
2024-05-09T02:19:08.315Z,67
2024-05-09T02:20:18.657Z,67
2024-05-09T02:21:19.213Z,67
2024-05-09T02:22:24.425Z,68
2024-05-09T02:23:30.109Z,67
2024-05-09T02:24:35.440Z,67
2024-05-09T02:25:40.974Z,67
2024-05-09T02:26:46.170Z,67
2024-05-09T02:27:51.795Z,67
2024-05-09T02:28:59.971Z,67
2024-05-09T02:30:09.865Z,68
2024-05-09T02:31:12.569Z,68
2024-05-09T02:32:18.280Z,68
2024-05-09T02:33:23.867Z,69
2024-05-09T02:34:28.985Z,69
2024-05-09T02:35:34.622Z,69
2024-05-09T02:36:39.943Z,69
2024-05-09T02:37:45.276Z,69
2024-05-09T02:38:50.807Z,69
2024-05-09T02:39:56.018Z,69
2024-05-09T02:41:01.638Z,70
2024-05-09T02:42:06.773Z,70
2024-05-09T02:43:12.888Z,69
2024-05-09T02:44:18.160Z,69
2024-05-09T02:45:23.694Z,69
2024-05-09T02:46:29.260Z,69
2024-05-09T02:47:35.049Z,69
2024-05-09T02:48:40.634Z,69
2024-05-09T02:49:46.043Z,69
2024-05-09T02:50:51.355Z,68
2024-05-09T02:51:56.943Z,69
2024-05-09T02:53:02.398Z,68
2024-05-09T02:54:11.031Z,68
2024-05-09T02:55:16.248Z,68
2024-05-09T02:56:22.022Z,68
2024-05-09T02:57:27.412Z,68
2024-05-09T02:58:32.937Z,68
2024-05-09T02:59:38.766Z,68
2024-05-09T03:00:47.199Z,68
2024-05-09T03:01:52.785Z,67
2024-05-09T03:02:58.058Z,67
2024-05-09T03:04:03.500Z,67
2024-05-09T03:05:08.907Z,68
2024-05-09T03:06:14.432Z,68
2024-05-09T03:07:20.299Z,68
2024-05-09T03:08:25.161Z,68
2024-05-09T03:09:30.341Z,68
2024-05-09T03:10:37.388Z,68
2024-05-09T03:11:41.509Z,69
2024-05-09T03:12:47.244Z,69
2024-05-09T03:13:53.004Z,69
2024-05-09T03:14:58.520Z,69
2024-05-09T03:16:03.962Z,69
2024-05-09T03:17:09.348Z,68
2024-05-09T03:18:15.273Z,69
2024-05-09T03:19:20.512Z,69
2024-05-09T03:20:30.488Z,69
2024-05-09T03:21:31.439Z,69
2024-05-09T03:22:37.055Z,69
2024-05-09T03:23:42.433Z,70
2024-05-09T03:24:48.120Z,70
2024-05-09T03:25:53.497Z,69
2024-05-09T03:26:58.961Z,69
2024-05-09T03:28:04.364Z,69
2024-05-09T03:29:10.155Z,69
2024-05-09T03:30:25.475Z,69
2024-05-09T03:31:21.220Z,69
2024-05-09T03:32:26.928Z,69
2024-05-09T03:33:32.148Z,69
2024-05-09T03:34:37.537Z,69
2024-05-09T03:35:43.211Z,69
2024-05-09T03:36:48.606Z,70
2024-05-09T03:37:54.051Z,70
2024-05-09T03:38:59.445Z,70
2024-05-09T03:40:07.241Z,69
2024-05-09T03:41:11.249Z,69
2024-05-09T03:42:16.549Z,69
2024-05-09T03:43:22.189Z,69
2024-05-09T03:44:27.618Z,69
2024-05-09T03:45:33.107Z,69
2024-05-09T03:46:38.283Z,69
2024-05-09T03:47:43.922Z,69
2024-05-09T03:48:49.280Z,69
2024-05-09T03:49:54.782Z,69
2024-05-09T03:51:00.062Z,70
2024-05-09T03:52:05.531Z,70
2024-05-09T03:53:11.050Z,70
2024-05-09T03:54:16.544Z,71
2024-05-09T03:55:22.216Z,71
2024-05-09T03:56:27.818Z,72
2024-05-09T03:57:33.512Z,71
2024-05-09T03:58:39.146Z,71
2024-05-09T03:59:44.614Z,71
2024-05-09T04:00:50.182Z,71
2024-05-09T04:01:55.952Z,72
2024-05-09T04:03:01.677Z,72
2024-05-09T04:04:06.628Z,71
2024-05-09T04:05:11.917Z,71
2024-05-09T04:06:20.568Z,71
2024-05-09T04:07:28.895Z,70
2024-05-09T04:08:34.532Z,70
2024-05-09T04:09:39.821Z,70
2024-05-09T04:10:43.704Z,70
2024-05-09T04:11:47.368Z,70
2024-05-09T04:12:57.346Z,70
2024-05-09T04:14:04.299Z,70
2024-05-09T04:15:12.815Z,70
2024-05-09T04:16:15.390Z,70
2024-05-09T04:17:20.826Z,70
2024-05-09T04:18:26.329Z,70
2024-05-09T04:19:32.208Z,70
2024-05-09T04:20:39.300Z,69
2024-05-09T04:21:43.235Z,69
2024-05-09T04:22:48.689Z,69
2024-05-09T04:23:53.990Z,69
2024-05-09T04:24:59.651Z,69
2024-05-09T04:26:05.113Z,69
2024-05-09T04:27:10.597Z,69
2024-05-09T04:28:18.826Z,70
2024-05-09T04:29:24.613Z,69
2024-05-09T04:30:33.741Z,69
2024-05-09T04:31:35.258Z,69
2024-05-09T04:32:40.849Z,70
2024-05-09T04:33:46.813Z,71
2024-05-09T04:34:52.046Z,71
2024-05-09T04:35:57.295Z,70
2024-05-09T04:37:02.967Z,70
2024-05-09T04:38:08.632Z,70
2024-05-09T04:39:14.153Z,70
2024-05-09T04:40:24.386Z,70
2024-05-09T04:41:25.312Z,70
2024-05-09T04:42:30.742Z,70
2024-05-09T04:43:36.106Z,70
2024-05-09T04:44:41.716Z,70
2024-05-09T04:45:47.032Z,70
2024-05-09T04:46:52.625Z,69
2024-05-09T04:47:58.277Z,70
2024-05-09T04:49:03.268Z,71
2024-05-09T04:50:11.521Z,71
2024-05-09T04:51:14.287Z,71
2024-05-09T04:52:19.643Z,72
2024-05-09T04:53:25.197Z,72
2024-05-09T04:54:35.768Z,73
2024-05-09T04:55:36.307Z,73
2024-05-09T04:56:41.966Z,73
2024-05-09T04:57:47.208Z,72
2024-05-09T04:58:52.687Z,73
2024-05-09T04:59:58.005Z,74
2024-05-09T05:01:03.506Z,74
2024-05-09T05:02:08.740Z,75
2024-05-09T05:03:15.316Z,74
2024-05-09T05:04:19.616Z,75
2024-05-09T05:05:25.269Z,75
2024-05-09T05:06:30.588Z,75
2024-05-09T05:07:36.021Z,74
2024-05-09T05:08:41.574Z,75
2024-05-09T05:09:47.099Z,74
2024-05-09T05:10:52.500Z,74
2024-05-09T05:11:58.103Z,74
2024-05-09T05:13:03.678Z,74
2024-05-09T05:14:13.793Z,74
2024-05-09T05:15:19.577Z,73
2024-05-09T05:16:24.876Z,74
2024-05-09T05:17:33.347Z,74
2024-05-09T05:18:38.432Z,74
2024-05-09T05:19:44.552Z,73
2024-05-09T05:20:49.750Z,73
2024-05-09T05:21:55.240Z,73
2024-05-09T05:23:00.883Z,72
2024-05-09T05:24:06.089Z,72
2024-05-09T05:25:11.831Z,72
2024-05-09T05:26:17.328Z,72
2024-05-09T05:27:22.895Z,72
2024-05-09T05:28:28.279Z,72
2024-05-09T05:29:33.904Z,71
2024-05-09T05:30:39.685Z,71
2024-05-09T05:31:44.837Z,70
2024-05-09T05:32:50.325Z,70
2024-05-09T05:33:55.491Z,70
2024-05-09T05:35:01.356Z,70
2024-05-09T05:36:06.723Z,70
2024-05-09T05:37:12.254Z,70
2024-05-09T05:38:17.827Z,70
2024-05-09T05:39:23.327Z,70
2024-05-09T05:40:35.042Z,70
2024-05-09T05:41:34.281Z,70
2024-05-09T05:42:39.716Z,69
2024-05-09T05:43:45.446Z,70
2024-05-09T05:44:50.720Z,71
2024-05-09T05:45:56.207Z,72
2024-05-09T05:47:01.736Z,72
2024-05-09T05:48:07.444Z,71
2024-05-09T05:49:12.695Z,70
2024-05-09T05:50:21.117Z,70
2024-05-09T05:51:23.192Z,69
2024-05-09T05:52:28.367Z,69
2024-05-09T05:53:34.256Z,69
2024-05-09T05:54:44.914Z,68
2024-05-09T05:55:50.651Z,68
2024-05-09T05:56:55.844Z,69
2024-05-09T05:58:01.450Z,69
2024-05-09T05:59:07.310Z,68
2024-05-09T06:00:15.224Z,69
2024-05-09T06:01:18.477Z,68
2024-05-09T06:02:23.299Z,68
2024-05-09T06:03:27.946Z,67
2024-05-09T06:04:33.651Z,70
2024-05-09T06:05:38.420Z,68
2024-05-09T06:06:43.167Z,68
2024-05-09T06:07:48.722Z,67
2024-05-09T06:08:54.351Z,66
2024-05-09T06:09:59.741Z,66
2024-05-09T06:11:05.419Z,67
2024-05-09T06:12:13.935Z,67
2024-05-09T06:13:19.298Z,67
2024-05-09T06:14:24.920Z,66
2024-05-09T06:15:30.247Z,66
2024-05-09T06:16:35.727Z,66
2024-05-09T06:17:41.538Z,67
2024-05-09T06:18:47.037Z,67
2024-05-09T06:19:52.213Z,67
2024-05-09T06:20:57.787Z,66
2024-05-09T06:22:03.503Z,66
2024-05-09T06:23:09.134Z,66
2024-05-09T06:24:14.564Z,66
2024-05-09T06:25:19.785Z,66
2024-05-09T06:26:25.515Z,65
2024-05-09T06:27:30.927Z,66
2024-05-09T06:28:36.669Z,66
2024-05-09T06:29:42.522Z,65
2024-05-09T06:30:47.852Z,65
2024-05-09T06:31:54.429Z,65
2024-05-09T06:32:59.078Z,64
2024-05-09T06:34:04.633Z,64
2024-05-09T06:35:09.940Z,64
2024-05-09T06:36:15.533Z,64
2024-05-09T06:37:20.880Z,65
2024-05-09T06:38:26.372Z,64
2024-05-09T06:39:31.738Z,64
2024-05-09T06:40:38.685Z,64
2024-05-09T06:41:42.536Z,63
2024-05-09T06:42:48.042Z,64
2024-05-09T06:43:53.479Z,64
2024-05-09T06:44:58.830Z,64
2024-05-09T06:46:04.512Z,64
2024-05-09T06:47:09.943Z,62
2024-05-09T06:48:15.489Z,63
2024-05-09T06:49:20.872Z,63
2024-05-09T06:50:28.056Z,64
2024-05-09T06:51:31.681Z,63
2024-05-09T06:52:39.605Z,62
2024-05-09T06:53:45.344Z,63
2024-05-09T06:54:51.102Z,62
2024-05-09T06:55:56.563Z,63
2024-05-09T06:57:02.074Z,63
2024-05-09T06:58:07.990Z,63
2024-05-09T06:59:13.502Z,63
2024-05-09T07:00:22.779Z,63
2024-05-09T07:01:24.256Z,63
2024-05-09T07:02:34.634Z,62
2024-05-09T07:03:39.951Z,62
2024-05-09T07:04:45.358Z,62
2024-05-09T07:05:50.800Z,63
2024-05-09T07:06:56.282Z,63
2024-05-09T07:09:10.023Z,62
2024-05-09T07:10:21.490Z,61
2024-05-09T07:11:20.929Z,61
2024-05-09T07:12:26.315Z,61
2024-05-09T07:13:31.865Z,61
2024-05-09T07:14:38.275Z,61
2024-05-09T07:15:42.331Z,60
2024-05-09T07:16:48.010Z,61
2024-05-09T07:17:53.654Z,60
2024-05-09T07:18:59.179Z,60
2024-05-09T07:20:05.512Z,60
2024-05-09T07:21:09.924Z,60
2024-05-09T07:22:15.621Z,61
2024-05-09T07:23:21.036Z,60
2024-05-09T07:24:26.709Z,60
2024-05-09T07:25:31.995Z,60
2024-05-09T07:26:37.417Z,60
2024-05-09T07:27:42.782Z,60
2024-05-09T07:28:48.315Z,60
2024-05-09T07:29:53.551Z,60
2024-05-09T07:30:59.144Z,60
2024-05-09T07:32:04.645Z,59
2024-05-09T07:33:10.027Z,59
2024-05-09T07:34:20.300Z,59
2024-05-09T07:35:25.643Z,59
2024-05-09T07:36:31.052Z,59
2024-05-09T07:37:36.430Z,59
2024-05-09T07:38:42.213Z,59
2024-05-09T07:39:47.779Z,59
2024-05-09T07:40:53.289Z,59
2024-05-09T07:42:01.317Z,59
2024-05-09T07:43:06.645Z,59
2024-05-09T07:44:11.799Z,60
2024-05-09T07:45:29.170Z,60
2024-05-09T07:46:51.544Z,59
2024-05-09T07:49:43.880Z,58
2024-05-09T07:52:46.007Z,59
2024-05-09T07:54:01.642Z,60
2024-05-09T07:55:06.575Z,59
2024-05-09T07:56:12.407Z,58
2024-05-09T07:57:16.796Z,59
2024-05-09T07:58:22.198Z,59
2024-05-09T07:59:27.731Z,58
2024-05-09T08:00:33.434Z,59
2024-05-09T08:01:38.744Z,59
2024-05-09T08:02:44.247Z,59
2024-05-09T08:03:52.408Z,59
2024-05-09T08:04:57.985Z,59
2024-05-09T08:06:03.409Z,59
2024-05-09T08:07:09.084Z,58
2024-05-09T08:08:14.413Z,58
2024-05-09T08:09:21.081Z,58
2024-05-09T08:10:28.504Z,58
2024-05-09T08:11:30.849Z,58
2024-05-09T08:12:36.252Z,58
2024-05-09T08:13:41.634Z,59
2024-05-09T08:14:46.998Z,59
2024-05-09T08:15:52.838Z,59
2024-05-09T08:16:58.037Z,58
2024-05-09T08:18:03.719Z,58
2024-05-09T08:19:11.796Z,58
2024-05-09T08:20:22.796Z,59
2024-05-09T08:21:22.582Z,59
2024-05-09T08:22:28.029Z,59
2024-05-09T08:23:33.550Z,57
2024-05-09T08:24:39.403Z,57
2024-05-09T08:25:45.098Z,58
2024-05-09T08:26:50.585Z,57
2024-05-09T08:27:56.149Z,58
2024-05-09T08:29:01.872Z,58
2024-05-09T08:30:10.172Z,58
2024-05-09T08:31:13.026Z,57
2024-05-09T08:32:18.569Z,57
2024-05-09T08:33:24.113Z,57
2024-05-09T08:34:29.856Z,55
2024-05-09T08:35:35.635Z,55
2024-05-09T08:36:40.875Z,55
2024-05-09T08:37:45.917Z,56
2024-05-09T08:38:51.435Z,56
2024-05-09T08:39:56.767Z,56
2024-05-09T08:41:02.367Z,56
2024-05-09T08:42:07.594Z,56
2024-05-09T08:43:13.580Z,55
2024-05-09T08:44:18.805Z,54
2024-05-09T08:45:24.326Z,54
2024-05-09T08:46:29.657Z,53
2024-05-09T08:47:35.437Z,54
2024-05-09T08:48:40.657Z,54
2024-05-09T08:49:46.215Z,54
2024-05-09T08:50:51.079Z,54
2024-05-09T08:51:56.716Z,55
2024-05-09T08:53:01.803Z,53
2024-05-09T08:54:07.116Z,54
2024-05-09T08:55:12.718Z,54
2024-05-09T08:56:18.279Z,55
2024-05-09T08:57:23.325Z,55
2024-05-09T08:58:28.317Z,54
2024-05-09T08:59:33.813Z,55
2024-05-09T09:00:42.261Z,55
2024-05-09T09:01:47.703Z,54
2024-05-09T09:02:52.937Z,53
2024-05-09T09:03:58.584Z,53
2024-05-09T09:05:04.219Z,53
2024-05-09T09:06:09.859Z,54
2024-05-09T09:07:15.581Z,53
2024-05-09T09:08:20.737Z,53
2024-05-09T09:09:26.363Z,53
2024-05-09T09:10:32.388Z,53
2024-05-09T09:11:37.221Z,53
2024-05-09T09:12:42.650Z,52
2024-05-09T09:13:48.272Z,53
2024-05-09T09:14:53.667Z,53
2024-05-09T09:16:01.970Z,53
2024-05-09T09:17:07.071Z,53
2024-05-09T09:18:18.223Z,53
2024-05-09T09:19:23.401Z,52
2024-05-09T09:20:33.502Z,51
2024-05-09T09:21:34.267Z,52
2024-05-09T09:22:39.648Z,51
2024-05-09T09:23:44.919Z,51
2024-05-09T09:24:50.504Z,50
2024-05-09T09:25:55.737Z,51
2024-05-09T09:27:04.143Z,51
2024-05-09T09:28:10.031Z,52
2024-05-09T09:29:14.470Z,51
2024-05-09T09:30:27.613Z,49
2024-05-09T09:31:24.645Z,49
2024-05-09T09:32:30.163Z,50
2024-05-09T09:33:34.888Z,51
2024-05-09T09:34:44.444Z,50
2024-05-09T09:35:49.431Z,50
2024-05-09T09:36:54.738Z,50
2024-05-09T09:38:04.432Z,50
2024-05-09T09:39:09.651Z,50
2024-05-09T09:40:15.552Z,50
2024-05-09T09:41:19.194Z,49
2024-05-09T09:42:23.986Z,49
2024-05-09T09:43:32.429Z,48
2024-05-09T09:44:41.920Z,47
2024-05-09T09:45:43.704Z,47
2024-05-09T09:46:48.722Z,46
2024-05-09T09:47:54.506Z,47
2024-05-09T09:48:59.801Z,48
2024-05-09T09:50:11.998Z,46
2024-05-09T09:51:13.508Z,47
2024-05-09T09:52:19.168Z,47
2024-05-09T09:53:24.487Z,48
2024-05-09T09:54:30.003Z,47
2024-05-09T09:55:35.443Z,47
2024-05-09T09:56:40.856Z,46
2024-05-09T09:57:46.215Z,46
2024-05-09T09:58:51.875Z,46
2024-05-09T09:59:57.703Z,46
2024-05-09T10:01:03.186Z,46
2024-05-09T10:02:08.640Z,46
2024-05-09T10:03:14.061Z,46
2024-05-09T10:04:19.570Z,46
2024-05-09T10:05:25.142Z,47
2024-05-09T10:06:30.313Z,46
2024-05-09T10:07:38.758Z,47
2024-05-09T10:08:44.143Z,47
2024-05-09T10:09:49.629Z,46
2024-05-09T10:10:54.983Z,45
2024-05-09T10:12:00.798Z,46
2024-05-09T10:13:13.392Z,46
2024-05-09T10:14:18.919Z,46
2024-05-09T10:15:24.695Z,47
2024-05-09T10:16:30.175Z,47
2024-05-09T10:17:35.809Z,46
2024-05-09T10:18:41.719Z,45
2024-05-09T10:19:46.840Z,45
2024-05-09T10:20:52.115Z,44
2024-05-09T10:21:57.639Z,43
2024-05-09T10:23:08.213Z,44
2024-05-09T10:24:23.443Z,44
2024-05-09T10:25:28.929Z,45
2024-05-09T10:26:34.485Z,48
2024-05-09T10:27:39.751Z,48
2024-05-09T10:28:45.121Z,47
2024-05-09T10:29:50.586Z,47
2024-05-09T10:31:01.062Z,47
2024-05-09T10:32:11.405Z,47
2024-05-09T10:33:16.699Z,45
2024-05-09T10:34:25.389Z,45
2024-05-09T10:35:30.580Z,44
2024-05-09T10:36:36.179Z,44
2024-05-09T10:37:41.806Z,43
2024-05-09T10:38:47.280Z,44
2024-05-09T10:39:52.983Z,45
2024-05-09T10:41:00.900Z,45
2024-05-09T10:42:06.690Z,44
2024-05-09T10:43:12.204Z,44
2024-05-09T10:44:17.684Z,44
2024-05-09T10:45:23.062Z,44
2024-05-09T10:46:31.175Z,43
2024-05-09T10:47:36.806Z,45
2024-05-09T10:48:42.356Z,45
2024-05-09T10:49:47.803Z,44
2024-05-09T10:50:53.086Z,43
2024-05-09T10:51:58.351Z,43
2024-05-09T10:53:03.772Z,43
2024-05-09T10:54:09.095Z,46
2024-05-09T10:55:14.738Z,46
2024-05-09T10:56:20.047Z,46
2024-05-09T10:57:25.554Z,45
2024-05-09T10:58:31.201Z,45
2024-05-09T10:59:39.474Z,44
2024-05-09T11:00:45.318Z,43
2024-05-09T11:01:50.610Z,43
2024-05-09T11:02:55.915Z,44
2024-05-09T11:04:01.292Z,44
2024-05-09T11:05:06.803Z,43
2024-05-09T11:06:11.910Z,43
2024-05-09T11:07:19.908Z,43
2024-05-09T11:08:25.395Z,43
2024-05-09T11:09:31.195Z,42
2024-05-09T11:10:36.524Z,42
2024-05-09T11:11:42.211Z,42
2024-05-09T11:12:47.763Z,43
2024-05-09T11:13:53.280Z,43
2024-05-09T11:14:58.588Z,43
2024-05-09T11:16:04.025Z,43
2024-05-09T11:17:19.284Z,43
2024-05-09T11:18:25.321Z,43
2024-05-09T11:19:30.156Z,43
2024-05-09T11:20:36.059Z,42
2024-05-09T11:21:41.335Z,43
2024-05-09T11:22:46.889Z,44
2024-05-09T11:23:52.275Z,43
2024-05-09T11:24:57.666Z,42
2024-05-09T11:26:03.477Z,42
2024-05-09T11:27:08.803Z,42
2024-05-09T11:28:14.522Z,43
2024-05-09T11:29:19.924Z,44
2024-05-09T11:30:26.947Z,42
2024-05-09T11:31:30.787Z,42
2024-05-09T11:32:36.202Z,42
2024-05-09T11:33:41.725Z,41
2024-05-09T11:34:49.842Z,42
2024-05-09T11:35:57.634Z,43
2024-05-09T11:37:06.483Z,43
2024-05-09T11:38:11.786Z,43
2024-05-09T11:39:17.256Z,42
2024-05-09T11:40:25.050Z,41
2024-05-09T11:41:27.885Z,42
2024-05-09T11:42:33.490Z,43
2024-05-09T11:43:39.102Z,42
2024-05-09T11:44:44.306Z,43
2024-05-09T11:45:49.921Z,43
2024-05-09T11:46:55.400Z,43
2024-05-09T11:48:00.925Z,45
2024-05-09T11:49:06.313Z,45
2024-05-09T11:50:16.061Z,44
2024-05-09T11:51:16.935Z,42
2024-05-09T11:52:22.625Z,42
2024-05-09T11:53:28.056Z,42
2024-05-09T11:54:33.713Z,42
2024-05-09T11:55:38.963Z,43
2024-05-09T11:56:44.494Z,42
2024-05-09T11:57:50.206Z,43
2024-05-09T11:58:55.596Z,41
2024-05-09T12:00:01.606Z,41
2024-05-09T12:01:07.536Z,40
2024-05-09T12:02:13.123Z,41
2024-05-09T12:03:18.331Z,41
2024-05-09T12:04:24.086Z,41
2024-05-09T12:05:29.433Z,41
2024-05-09T12:06:34.583Z,41
2024-05-09T12:07:40.194Z,41
2024-05-09T12:08:45.530Z,42
2024-05-09T12:09:51.139Z,42
2024-05-09T12:10:57.069Z,42
2024-05-09T12:12:01.917Z,41
2024-05-09T12:13:07.704Z,41
2024-05-09T12:14:13.044Z,40
2024-05-09T12:15:18.618Z,41
2024-05-09T12:16:24.596Z,41
2024-05-09T12:17:29.983Z,41
2024-05-09T12:18:35.267Z,42
2024-05-09T12:19:41.041Z,40
2024-05-09T12:20:46.360Z,41
2024-05-09T12:21:51.867Z,41
2024-05-09T12:22:57.279Z,41
2024-05-09T12:24:02.819Z,41
2024-05-09T12:25:08.300Z,41
2024-05-09T12:26:13.816Z,41
2024-05-09T12:27:18.937Z,40
2024-05-09T12:28:24.695Z,40
2024-05-09T12:29:29.999Z,40
2024-05-09T12:30:37.276Z,40
2024-05-09T12:31:40.951Z,40
2024-05-09T12:32:46.635Z,40
2024-05-09T12:33:51.773Z,40
2024-05-09T12:34:57.359Z,39
2024-05-09T12:36:03.038Z,39
2024-05-09T12:37:08.492Z,40
2024-05-09T12:38:17.279Z,40
2024-05-09T12:39:23.270Z,40
2024-05-09T12:40:33.781Z,40
2024-05-09T12:41:33.912Z,40
2024-05-09T12:42:39.420Z,40
2024-05-09T12:43:44.930Z,40
2024-05-09T12:44:50.135Z,40
2024-05-09T12:45:55.724Z,40
2024-05-09T12:47:01.150Z,40
2024-05-09T12:48:07.238Z,40
2024-05-09T12:49:14.417Z,40
2024-05-09T12:50:22.282Z,40
2024-05-09T12:51:23.420Z,39
2024-05-09T12:52:28.904Z,39
2024-05-09T12:53:34.619Z,39
2024-05-09T12:54:40.128Z,40
2024-05-09T12:55:52.593Z,39
2024-05-09T12:56:51.287Z,39
2024-05-09T12:57:57.001Z,40
2024-05-09T12:59:02.278Z,40
2024-05-09T13:00:11.580Z,40
2024-05-09T13:01:13.781Z,39
2024-05-09T13:02:19.587Z,39
2024-05-09T13:03:25.109Z,40
2024-05-09T13:04:30.581Z,40
2024-05-09T13:05:35.897Z,39
2024-05-09T13:06:41.294Z,40
2024-05-09T13:07:46.969Z,40
2024-05-09T13:08:52.174Z,40
2024-05-09T13:09:57.509Z,40
2024-05-09T13:11:02.921Z,40
2024-05-09T13:12:08.623Z,40
2024-05-09T13:13:14.014Z,40
2024-05-09T13:14:19.692Z,40
2024-05-09T13:15:25.221Z,41
2024-05-09T13:16:30.653Z,40
2024-05-09T13:17:36.356Z,40
2024-05-09T13:18:41.823Z,39
2024-05-09T13:19:47.382Z,40
2024-05-09T13:20:52.753Z,40
2024-05-09T13:21:58.160Z,40
2024-05-09T13:23:03.452Z,39
2024-05-09T13:24:09.146Z,39
2024-05-09T13:25:14.538Z,38
2024-05-09T13:26:19.781Z,39
2024-05-09T13:27:25.225Z,39
2024-05-09T13:28:30.683Z,38
2024-05-09T13:29:36.164Z,38
2024-05-09T13:30:42.206Z,38
2024-05-09T13:31:47.085Z,38
2024-05-09T13:32:52.453Z,39
2024-05-09T13:33:57.914Z,39
2024-05-09T13:35:03.290Z,39
2024-05-09T13:36:08.645Z,39
2024-05-09T13:37:13.949Z,39
2024-05-09T13:38:19.789Z,38
2024-05-09T13:39:24.930Z,39
2024-05-09T13:40:33.224Z,38
2024-05-09T13:41:38.538Z,38
2024-05-09T13:42:45.652Z,38
2024-05-09T13:43:49.205Z,38
2024-05-09T13:44:54.966Z,38
2024-05-09T13:46:00.423Z,38
2024-05-09T13:47:06.122Z,37
2024-05-09T13:48:11.584Z,37
2024-05-09T13:49:17.096Z,38
2024-05-09T13:50:27.498Z,37
2024-05-09T13:51:27.600Z,37
2024-05-09T13:52:32.961Z,37
2024-05-09T13:53:38.802Z,38
2024-05-09T13:54:44.310Z,38
2024-05-09T13:55:52.583Z,38
2024-05-09T13:56:57.931Z,38
2024-05-09T13:58:03.559Z,38
2024-05-09T13:59:08.754Z,38
2024-05-09T14:00:22.717Z,38
2024-05-09T14:01:19.707Z,38
2024-05-09T14:02:25.031Z,37
2024-05-09T14:03:30.525Z,37
2024-05-09T14:04:35.173Z,37
2024-05-09T14:05:39.855Z,38
2024-05-09T14:06:45.225Z,38
2024-05-09T14:07:49.921Z,38
2024-05-09T14:08:55.091Z,38
2024-05-09T14:10:00.592Z,37
2024-05-09T14:11:05.397Z,37
2024-05-09T14:12:11.682Z,37
2024-05-09T14:13:16.587Z,37
2024-05-09T14:14:21.487Z,37
2024-05-09T14:15:26.349Z,38
2024-05-09T14:16:32.045Z,37
2024-05-09T14:17:37.363Z,36
2024-05-09T14:18:42.835Z,37
2024-05-09T14:19:48.182Z,37
2024-05-09T14:20:53.654Z,37
2024-05-09T14:21:59.248Z,37
2024-05-09T14:23:04.892Z,37
2024-05-09T14:24:10.063Z,37
2024-05-09T14:25:15.464Z,38
2024-05-09T14:26:20.769Z,38
2024-05-09T14:27:26.622Z,37
2024-05-09T14:28:32.095Z,38
2024-05-09T14:29:37.627Z,38
2024-05-09T14:30:43.051Z,39
2024-05-09T14:31:48.469Z,39
2024-05-09T14:32:53.751Z,39
2024-05-09T14:33:59.290Z,39
2024-05-09T14:35:04.760Z,39
2024-05-09T14:36:10.348Z,39
2024-05-09T14:37:15.803Z,39
2024-05-09T14:38:21.400Z,39
2024-05-09T14:39:27.055Z,39
2024-05-09T14:40:38.726Z,39
2024-05-09T14:41:37.841Z,39
2024-05-09T14:42:43.487Z,40
2024-05-09T14:43:48.843Z,40
2024-05-09T14:44:54.383Z,40
2024-05-09T14:45:59.824Z,40
2024-05-09T14:47:05.335Z,40
2024-05-09T14:48:10.774Z,40
2024-05-09T14:49:19.165Z,40
2024-05-09T14:50:31.856Z,40
2024-05-09T14:51:29.742Z,41
2024-05-09T14:52:35.075Z,41
2024-05-09T14:53:40.533Z,41
2024-05-09T14:54:45.830Z,40
2024-05-09T14:55:51.307Z,40
2024-05-09T14:56:56.775Z,39
2024-05-09T14:58:02.275Z,39
2024-05-09T14:59:07.528Z,39
2024-05-09T15:00:17.284Z,39
2024-05-09T15:01:20.129Z,39
2024-05-09T15:02:28.354Z,39
2024-05-09T15:03:33.918Z,39
2024-05-09T15:04:39.725Z,39
2024-05-09T15:05:44.811Z,39
2024-05-09T15:06:50.454Z,39
2024-05-09T15:07:55.810Z,39
2024-05-09T15:09:01.441Z,39
2024-05-09T15:10:11.334Z,39
2024-05-09T15:11:14.995Z,39
2024-05-09T15:12:20.715Z,39
2024-05-09T15:13:26.769Z,39
2024-05-09T15:14:31.799Z,39
2024-05-09T15:15:37.579Z,39
2024-05-09T15:16:42.579Z,39
2024-05-09T15:17:48.186Z,39
2024-05-09T15:18:53.771Z,39
2024-05-09T15:19:59.266Z,39
2024-05-09T15:21:04.780Z,38
2024-05-09T15:22:10.089Z,39
2024-05-09T15:23:15.678Z,39
2024-05-09T15:24:21.289Z,39
2024-05-09T15:25:26.786Z,39
2024-05-09T15:26:32.394Z,39
2024-05-09T15:27:37.788Z,39
2024-05-09T15:28:43.483Z,39
2024-05-09T15:29:48.619Z,40
2024-05-09T15:30:54.248Z,40
2024-05-09T15:31:59.524Z,39
2024-05-09T15:33:06.163Z,39
2024-05-09T15:34:10.490Z,39
2024-05-09T15:35:16.126Z,39
2024-05-09T15:36:24.423Z,39
2024-05-09T15:37:30.132Z,39
2024-05-09T15:38:35.841Z,40
2024-05-09T15:39:44.079Z,40
2024-05-09T15:40:49.869Z,40
2024-05-09T15:41:55.135Z,41